sensor_id;sensor_type;location;lat;lon;timestamp;temperature;humidity
15113;DHT22;7657;50.140;7.076;2022-10-31T00:00:14;14.50;99.90
15113;DHT22;7657;50.140;7.076;2022-10-31T00:02:41;14.50;99.90
15113;DHT22;7657;50.140;7.076;2022-10-31T00:05:08;14.40;99.90
15113;DHT22;7657;50.140;7.076;2022-10-31T00:07:36;14.40;99.90
15113;DHT22;7657;50.140;7.076;2022-10-31T00:10:04;14.40;99.90
15113;DHT22;7657;50.140;7.076;2022-10-31T00:12:31;14.40;99.90
15113;DHT22;7657;50.140;7.076;2022-10-31T00:14:58;14.30;99.90
15113;DHT22;7657;50.140;7.076;2022-10-31T00:17:25;14.40;99.90
15113;DHT22;7657;50.140;7.076;2022-10-31T00:19:52;14.40;99.90
15113;DHT22;7657;50.140;7.076;2022-10-31T00:22:19;14.30;99.90
15113;DHT22;7657;50.140;7.076;2022-10-31T00:24:47;14.40;99.90
15113;DHT22;7657;50.140;7.076;2022-10-31T00:27:14;14.30;99.90
15113;DHT22;7657;50.140;7.076;2022-10-31T00:29:40;14.30;99.90
15113;DHT22;7657;50.140;7.076;2022-10-31T00:32:07;14.30;99.90
15113;DHT22;7657;50.140;7.076;2022-10-31T00:34:34;14.30;99.90
15113;DHT22;7657;50.140;7.076;2022-10-31T00:37:01;14.30;99.90
15113;DHT22;7657;50.140;7.076;2022-10-31T00:39:28;14.30;99.90
15113;DHT22;7657;50.140;7.076;2022-10-31T00:41:56;14.30;99.90
15113;DHT22;7657;50.140;7.076;2022-10-31T00:44:23;14.30;99.90
15113;DHT22;7657;50.140;7.076;2022-10-31T00:46:50;14.20;99.90
15113;DHT22;7657;50.140;7.076;2022-10-31T00:49:17;14.20;99.90
15113;DHT22;7657;50.140;7.076;2022-10-31T00:51:44;14.20;99.90
15113;DHT22;7657;50.140;7.076;2022-10-31T00:54:10;14.20;99.90
15113;DHT22;7657;50.140;7.076;2022-10-31T00:56:37;14.00;99.90
15113;DHT22;7657;50.140;7.076;2022-10-31T00:59:05;14.10;99.90
15113;DHT22;7657;50.140;7.076;2022-10-31T01:01:32;14.10;99.90
15113;DHT22;7657;50.140;7.076;2022-10-31T01:03:59;14.10;99.90
15113;DHT22;7657;50.140;7.076;2022-10-31T01:06:26;14.10;99.90
15113;DHT22;7657;50.140;7.076;2022-10-31T01:08:53;14.00;99.90
15113;DHT22;7657;50.140;7.076;2022-10-31T01:11:21;14.00;99.90
15113;DHT22;7657;50.140;7.076;2022-10-31T01:13:50;14.00;99.90
15113;DHT22;7657;50.140;7.076;2022-10-31T01:16:20;13.90;99.90
15113;DHT22;7657;50.140;7.076;2022-10-31T01:18:48;13.90;99.90
15113;DHT22;7657;50.140;7.076;2022-10-31T01:21:17;14.00;99.90
15113;DHT22;7657;50.140;7.076;2022-10-31T01:23:44;14.00;99.90
15113;DHT22;7657;50.140;7.076;2022-10-31T01:26:13;14.00;99.90
15113;DHT22;7657;50.140;7.076;2022-10-31T01:28:45;14.00;99.90
15113;DHT22;7657;50.140;7.076;2022-10-31T01:31:12;14.10;99.90
15113;DHT22;7657;50.140;7.076;2022-10-31T01:33:41;14.00;99.90
15113;DHT22;7657;50.140;7.076;2022-10-31T01:36:13;14.00;99.90
15113;DHT22;7657;50.140;7.076;2022-10-31T01:38:40;14.00;99.90
15113;DHT22;7657;50.140;7.076;2022-10-31T01:41:08;13.90;99.90
15113;DHT22;7657;50.140;7.076;2022-10-31T01:43:46;14.00;99.90
15113;DHT22;7657;50.140;7.076;2022-10-31T01:46:14;13.90;99.90
15113;DHT22;7657;50.140;7.076;2022-10-31T01:48:43;13.90;99.90
15113;DHT22;7657;50.140;7.076;2022-10-31T01:51:11;13.90;99.90
15113;DHT22;7657;50.140;7.076;2022-10-31T01:53:40;13.90;99.90
15113;DHT22;7657;50.140;7.076;2022-10-31T01:56:07;14.00;99.90
15113;DHT22;7657;50.140;7.076;2022-10-31T01:58:35;14.00;99.90
15113;DHT22;7657;50.140;7.076;2022-10-31T02:01:03;14.00;99.90
15113;DHT22;7657;50.140;7.076;2022-10-31T02:03:30;14.00;99.90
15113;DHT22;7657;50.140;7.076;2022-10-31T02:05:59;14.00;99.90
15113;DHT22;7657;50.140;7.076;2022-10-31T02:08:28;14.00;99.90
15113;DHT22;7657;50.140;7.076;2022-10-31T02:10:56;14.00;99.90
15113;DHT22;7657;50.140;7.076;2022-10-31T02:13:23;14.00;99.90
15113;DHT22;7657;50.140;7.076;2022-10-31T02:15:53;14.00;99.90
15113;DHT22;7657;50.140;7.076;2022-10-31T02:18:22;14.00;99.90
15113;DHT22;7657;50.140;7.076;2022-10-31T02:20:57;14.00;99.90
15113;DHT22;7657;50.140;7.076;2022-10-31T02:24:00;14.00;99.90
15113;DHT22;7657;50.140;7.076;2022-10-31T02:32:27;14.00;99.90
15113;DHT22;7657;50.140;7.076;2022-10-31T02:34:59;14.00;99.90
15113;DHT22;7657;50.140;7.076;2022-10-31T02:37:35;14.00;99.90
15113;DHT22;7657;50.140;7.076;2022-10-31T02:40:10;13.90;99.90
15113;DHT22;7657;50.140;7.076;2022-10-31T02:42:47;13.90;99.90
15113;DHT22;7657;50.140;7.076;2022-10-31T02:45:23;13.90;99.90
15113;DHT22;7657;50.140;7.076;2022-10-31T02:47:57;13.90;99.90
15113;DHT22;7657;50.140;7.076;2022-10-31T02:50:28;14.00;99.90
15113;DHT22;7657;50.140;7.076;2022-10-31T02:52:57;14.00;99.90
15113;DHT22;7657;50.140;7.076;2022-10-31T02:55:49;13.90;99.90
15113;DHT22;7657;50.140;7.076;2022-10-31T02:58:20;14.00;99.90
15113;DHT22;7657;50.140;7.076;2022-10-31T03:01:04;14.00;99.90
15113;DHT22;7657;50.140;7.076;2022-10-31T03:03:36;14.00;99.90
15113;DHT22;7657;50.140;7.076;2022-10-31T03:06:12;13.90;99.90
15113;DHT22;7657;50.140;7.076;2022-10-31T03:08:47;14.00;99.90
15113;DHT22;7657;50.140;7.076;2022-10-31T03:11:19;14.00;99.90
15113;DHT22;7657;50.140;7.076;2022-10-31T03:13:49;13.90;99.90
15113;DHT22;7657;50.140;7.076;2022-10-31T03:16:23;13.90;99.90
15113;DHT22;7657;50.140;7.076;2022-10-31T03:18:56;13.90;99.90
15113;DHT22;7657;50.140;7.076;2022-10-31T03:21:27;13.90;99.90
15113;DHT22;7657;50.140;7.076;2022-10-31T03:23:57;13.80;99.90
15113;DHT22;7657;50.140;7.076;2022-10-31T03:26:25;13.70;99.90
15113;DHT22;7657;50.140;7.076;2022-10-31T03:28:56;13.70;99.90
15113;DHT22;7657;50.140;7.076;2022-10-31T03:31:27;13.70;99.90
15113;DHT22;7657;50.140;7.076;2022-10-31T03:33:59;13.70;99.90
15113;DHT22;7657;50.140;7.076;2022-10-31T03:36:29;13.70;99.90
15113;DHT22;7657;50.140;7.076;2022-10-31T03:38:57;13.80;99.90
15113;DHT22;7657;50.140;7.076;2022-10-31T03:41:28;13.80;99.90
15113;DHT22;7657;50.140;7.076;2022-10-31T03:44:01;13.70;99.90
15113;DHT22;7657;50.140;7.076;2022-10-31T03:46:29;13.70;99.90
15113;DHT22;7657;50.140;7.076;2022-10-31T03:48:58;13.70;99.90
15113;DHT22;7657;50.140;7.076;2022-10-31T03:51:30;13.80;99.90
15113;DHT22;7657;50.140;7.076;2022-10-31T03:54:04;13.80;99.90
15113;DHT22;7657;50.140;7.076;2022-10-31T03:56:37;13.90;99.90
15113;DHT22;7657;50.140;7.076;2022-10-31T03:59:07;13.90;99.90
15113;DHT22;7657;50.140;7.076;2022-10-31T04:01:40;13.90;99.90
15113;DHT22;7657;50.140;7.076;2022-10-31T04:04:09;13.90;99.90
15113;DHT22;7657;50.140;7.076;2022-10-31T04:06:38;13.90;99.90
15113;DHT22;7657;50.140;7.076;2022-10-31T04:09:08;13.90;99.90
15113;DHT22;7657;50.140;7.076;2022-10-31T04:11:43;13.90;99.90
15113;DHT22;7657;50.140;7.076;2022-10-31T04:14:12;13.90;99.90
15113;DHT22;7657;50.140;7.076;2022-10-31T04:16:40;13.80;99.90
15113;DHT22;7657;50.140;7.076;2022-10-31T04:19:09;13.80;99.90
15113;DHT22;7657;50.140;7.076;2022-10-31T04:21:36;13.90;99.90
15113;DHT22;7657;50.140;7.076;2022-10-31T04:24:03;13.80;99.90
15113;DHT22;7657;50.140;7.076;2022-10-31T04:26:30;13.80;99.90
15113;DHT22;7657;50.140;7.076;2022-10-31T04:28:57;13.70;99.90
15113;DHT22;7657;50.140;7.076;2022-10-31T04:31:24;13.70;99.90
15113;DHT22;7657;50.140;7.076;2022-10-31T04:33:51;13.70;99.90
15113;DHT22;7657;50.140;7.076;2022-10-31T04:36:19;13.70;99.90
15113;DHT22;7657;50.140;7.076;2022-10-31T04:38:46;13.60;99.90
15113;DHT22;7657;50.140;7.076;2022-10-31T04:41:13;13.50;99.90
15113;DHT22;7657;50.140;7.076;2022-10-31T04:43:40;13.50;99.90
15113;DHT22;7657;50.140;7.076;2022-10-31T04:46:07;13.30;99.90
15113;DHT22;7657;50.140;7.076;2022-10-31T04:48:34;13.30;99.90
15113;DHT22;7657;50.140;7.076;2022-10-31T04:51:02;13.30;99.90
15113;DHT22;7657;50.140;7.076;2022-10-31T04:53:30;13.30;99.90
15113;DHT22;7657;50.140;7.076;2022-10-31T04:55:58;13.30;99.90
15113;DHT22;7657;50.140;7.076;2022-10-31T04:58:25;13.20;99.90
15113;DHT22;7657;50.140;7.076;2022-10-31T05:00:52;13.20;99.90
15113;DHT22;7657;50.140;7.076;2022-10-31T05:03:19;13.20;99.90
15113;DHT22;7657;50.140;7.076;2022-10-31T05:05:46;13.20;99.90
15113;DHT22;7657;50.140;7.076;2022-10-31T05:08:13;13.30;99.90
15113;DHT22;7657;50.140;7.076;2022-10-31T05:10:42;13.30;99.90
15113;DHT22;7657;50.140;7.076;2022-10-31T05:13:09;13.40;99.90
15113;DHT22;7657;50.140;7.076;2022-10-31T05:15:36;13.40;99.90
15113;DHT22;7657;50.140;7.076;2022-10-31T05:18:03;13.40;99.90
15113;DHT22;7657;50.140;7.076;2022-10-31T05:20:30;13.40;99.90
15113;DHT22;7657;50.140;7.076;2022-10-31T05:22:58;13.30;99.90
15113;DHT22;7657;50.140;7.076;2022-10-31T05:25:26;13.30;99.90
15113;DHT22;7657;50.140;7.076;2022-10-31T05:27:55;13.40;99.90
15113;DHT22;7657;50.140;7.076;2022-10-31T05:30:24;13.30;99.90
15113;DHT22;7657;50.140;7.076;2022-10-31T05:32:52;13.30;99.90
15113;DHT22;7657;50.140;7.076;2022-10-31T05:35:21;13.30;99.90
15113;DHT22;7657;50.140;7.076;2022-10-31T05:37:48;13.30;99.90
15113;DHT22;7657;50.140;7.076;2022-10-31T05:40:17;13.40;99.90
15113;DHT22;7657;50.140;7.076;2022-10-31T05:42:45;13.40;99.90
15113;DHT22;7657;50.140;7.076;2022-10-31T05:45:15;13.40;99.90
15113;DHT22;7657;50.140;7.076;2022-10-31T05:47:42;13.40;99.90
15113;DHT22;7657;50.140;7.076;2022-10-31T05:50:10;13.40;99.90
15113;DHT22;7657;50.140;7.076;2022-10-31T05:52:37;13.40;99.90
15113;DHT22;7657;50.140;7.076;2022-10-31T05:55:04;13.40;99.90
15113;DHT22;7657;50.140;7.076;2022-10-31T05:57:32;13.40;99.90
15113;DHT22;7657;50.140;7.076;2022-10-31T06:00:00;13.40;99.90
15113;DHT22;7657;50.140;7.076;2022-10-31T06:02:28;13.40;99.90
15113;DHT22;7657;50.140;7.076;2022-10-31T06:04:59;13.40;99.90
15113;DHT22;7657;50.140;7.076;2022-10-31T06:07:27;13.40;99.90
15113;DHT22;7657;50.140;7.076;2022-10-31T06:09:53;13.40;99.90
15113;DHT22;7657;50.140;7.076;2022-10-31T06:12:20;13.30;99.90
15113;DHT22;7657;50.140;7.076;2022-10-31T06:14:47;13.30;99.90
15113;DHT22;7657;50.140;7.076;2022-10-31T06:17:15;13.30;99.90
15113;DHT22;7657;50.140;7.076;2022-10-31T06:19:43;13.40;99.90
15113;DHT22;7657;50.140;7.076;2022-10-31T06:22:10;13.30;99.90
15113;DHT22;7657;50.140;7.076;2022-10-31T06:24:37;13.30;99.90
15113;DHT22;7657;50.140;7.076;2022-10-31T06:27:05;13.30;99.90
15113;DHT22;7657;50.140;7.076;2022-10-31T06:29:32;13.30;99.90
15113;DHT22;7657;50.140;7.076;2022-10-31T06:31:59;13.30;99.90
15113;DHT22;7657;50.140;7.076;2022-10-31T06:34:26;13.30;99.90
15113;DHT22;7657;50.140;7.076;2022-10-31T06:36:54;13.30;99.90
15113;DHT22;7657;50.140;7.076;2022-10-31T06:39:21;13.30;99.90
15113;DHT22;7657;50.140;7.076;2022-10-31T06:41:48;13.40;99.90
15113;DHT22;7657;50.140;7.076;2022-10-31T06:44:14;13.40;99.90
15113;DHT22;7657;50.140;7.076;2022-10-31T06:46:41;13.40;99.90
15113;DHT22;7657;50.140;7.076;2022-10-31T06:49:08;13.50;99.90
15113;DHT22;7657;50.140;7.076;2022-10-31T06:51:35;13.50;99.90
15113;DHT22;7657;50.140;7.076;2022-10-31T06:54:03;13.60;99.90
15113;DHT22;7657;50.140;7.076;2022-10-31T06:56:30;13.60;99.90
15113;DHT22;7657;50.140;7.076;2022-10-31T06:58:57;13.50;99.90
15113;DHT22;7657;50.140;7.076;2022-10-31T07:01:24;13.40;99.90
15113;DHT22;7657;50.140;7.076;2022-10-31T07:03:51;13.50;99.90
15113;DHT22;7657;50.140;7.076;2022-10-31T07:06:18;13.50;99.90
15113;DHT22;7657;50.140;7.076;2022-10-31T07:08:45;13.50;99.90
15113;DHT22;7657;50.140;7.076;2022-10-31T07:11:13;13.50;99.90
15113;DHT22;7657;50.140;7.076;2022-10-31T07:13:40;13.50;99.90
15113;DHT22;7657;50.140;7.076;2022-10-31T07:16:07;13.50;99.90
15113;DHT22;7657;50.140;7.076;2022-10-31T07:18:36;13.50;99.90
15113;DHT22;7657;50.140;7.076;2022-10-31T07:21:03;13.50;99.90
15113;DHT22;7657;50.140;7.076;2022-10-31T07:23:30;13.60;99.90
15113;DHT22;7657;50.140;7.076;2022-10-31T07:25:58;13.60;99.90
15113;DHT22;7657;50.140;7.076;2022-10-31T07:28:27;13.60;99.90
15113;DHT22;7657;50.140;7.076;2022-10-31T07:30:55;13.70;99.90
15113;DHT22;7657;50.140;7.076;2022-10-31T07:33:22;13.80;99.90
15113;DHT22;7657;50.140;7.076;2022-10-31T07:35:51;13.80;99.90
15113;DHT22;7657;50.140;7.076;2022-10-31T07:38:18;13.90;99.90
15113;DHT22;7657;50.140;7.076;2022-10-31T07:40:49;14.00;99.90
15113;DHT22;7657;50.140;7.076;2022-10-31T07:43:16;14.00;99.90
15113;DHT22;7657;50.140;7.076;2022-10-31T07:45:49;14.10;99.90
15113;DHT22;7657;50.140;7.076;2022-10-31T07:48:16;14.10;99.90
15113;DHT22;7657;50.140;7.076;2022-10-31T07:50:43;14.20;99.90
15113;DHT22;7657;50.140;7.076;2022-10-31T07:53:12;14.20;99.90
15113;DHT22;7657;50.140;7.076;2022-10-31T07:55:39;14.30;99.90
15113;DHT22;7657;50.140;7.076;2022-10-31T07:58:07;14.30;99.90
15113;DHT22;7657;50.140;7.076;2022-10-31T08:00:36;14.20;99.90
15113;DHT22;7657;50.140;7.076;2022-10-31T08:03:05;14.30;99.90
15113;DHT22;7657;50.140;7.076;2022-10-31T08:05:33;14.30;99.90
15113;DHT22;7657;50.140;7.076;2022-10-31T08:08:00;14.30;99.90
15113;DHT22;7657;50.140;7.076;2022-10-31T08:10:28;14.20;99.90
15113;DHT22;7657;50.140;7.076;2022-10-31T08:12:56;14.20;99.90
15113;DHT22;7657;50.140;7.076;2022-10-31T08:15:23;14.20;99.90
15113;DHT22;7657;50.140;7.076;2022-10-31T08:17:50;14.20;99.90
15113;DHT22;7657;50.140;7.076;2022-10-31T08:20:19;14.30;99.90
15113;DHT22;7657;50.140;7.076;2022-10-31T08:22:53;14.30;99.90
15113;DHT22;7657;50.140;7.076;2022-10-31T08:25:21;14.30;99.90
15113;DHT22;7657;50.140;7.076;2022-10-31T08:27:49;14.30;99.90
15113;DHT22;7657;50.140;7.076;2022-10-31T08:30:17;14.20;99.90
15113;DHT22;7657;50.140;7.076;2022-10-31T08:32:44;14.10;99.90
15113;DHT22;7657;50.140;7.076;2022-10-31T08:35:11;14.10;99.90
15113;DHT22;7657;50.140;7.076;2022-10-31T08:37:39;14.20;99.90
15113;DHT22;7657;50.140;7.076;2022-10-31T08:40:07;14.20;99.90
15113;DHT22;7657;50.140;7.076;2022-10-31T08:42:34;14.30;99.90
15113;DHT22;7657;50.140;7.076;2022-10-31T08:45:02;14.30;99.90
15113;DHT22;7657;50.140;7.076;2022-10-31T08:47:29;14.30;99.90
15113;DHT22;7657;50.140;7.076;2022-10-31T08:49:55;14.30;99.90
15113;DHT22;7657;50.140;7.076;2022-10-31T08:52:23;14.40;99.90
15113;DHT22;7657;50.140;7.076;2022-10-31T08:54:52;14.30;99.90
15113;DHT22;7657;50.140;7.076;2022-10-31T08:57:19;14.40;99.90
15113;DHT22;7657;50.140;7.076;2022-10-31T08:59:46;14.40;99.90
15113;DHT22;7657;50.140;7.076;2022-10-31T09:02:12;14.40;99.90
15113;DHT22;7657;50.140;7.076;2022-10-31T09:04:39;14.40;99.90
15113;DHT22;7657;50.140;7.076;2022-10-31T09:07:06;14.40;99.90
15113;DHT22;7657;50.140;7.076;2022-10-31T09:09:33;14.50;99.90
15113;DHT22;7657;50.140;7.076;2022-10-31T09:12:01;14.50;99.90
15113;DHT22;7657;50.140;7.076;2022-10-31T09:14:28;14.50;99.90
15113;DHT22;7657;50.140;7.076;2022-10-31T09:16:55;14.60;99.90
15113;DHT22;7657;50.140;7.076;2022-10-31T09:19:22;14.60;99.90
15113;DHT22;7657;50.140;7.076;2022-10-31T09:21:52;14.60;99.90
15113;DHT22;7657;50.140;7.076;2022-10-31T09:24:19;14.60;99.90
15113;DHT22;7657;50.140;7.076;2022-10-31T09:26:46;14.60;99.90
15113;DHT22;7657;50.140;7.076;2022-10-31T09:29:14;14.60;99.90
15113;DHT22;7657;50.140;7.076;2022-10-31T09:31:41;14.70;99.90
15113;DHT22;7657;50.140;7.076;2022-10-31T09:34:08;14.70;99.90
15113;DHT22;7657;50.140;7.076;2022-10-31T09:36:35;14.80;99.90
15113;DHT22;7657;50.140;7.076;2022-10-31T09:39:02;14.80;99.90
15113;DHT22;7657;50.140;7.076;2022-10-31T09:41:38;14.80;99.90
15113;DHT22;7657;50.140;7.076;2022-10-31T09:44:21;14.90;99.90
15113;DHT22;7657;50.140;7.076;2022-10-31T09:46:57;14.90;99.90
15113;DHT22;7657;50.140;7.076;2022-10-31T09:49:34;14.90;99.90
15113;DHT22;7657;50.140;7.076;2022-10-31T09:52:11;15.00;99.90
15113;DHT22;7657;50.140;7.076;2022-10-31T09:54:43;15.10;99.90
15113;DHT22;7657;50.140;7.076;2022-10-31T09:57:14;15.00;99.90
15113;DHT22;7657;50.140;7.076;2022-10-31T09:59:44;14.90;99.90
15113;DHT22;7657;50.140;7.076;2022-10-31T10:02:16;15.00;99.90
15113;DHT22;7657;50.140;7.076;2022-10-31T10:04:51;15.00;99.90
15113;DHT22;7657;50.140;7.076;2022-10-31T10:07:25;15.00;99.90
15113;DHT22;7657;50.140;7.076;2022-10-31T10:09:54;15.10;99.90
15113;DHT22;7657;50.140;7.076;2022-10-31T10:12:33;15.10;99.90
15113;DHT22;7657;50.140;7.076;2022-10-31T10:15:28;15.20;99.90
15113;DHT22;7657;50.140;7.076;2022-10-31T10:18:03;15.20;99.90
15113;DHT22;7657;50.140;7.076;2022-10-31T10:20:35;15.20;99.90
15113;DHT22;7657;50.140;7.076;2022-10-31T10:23:29;15.30;99.90
15113;DHT22;7657;50.140;7.076;2022-10-31T10:26:03;15.40;99.90
15113;DHT22;7657;50.140;7.076;2022-10-31T10:28:38;15.40;99.90
15113;DHT22;7657;50.140;7.076;2022-10-31T10:31:10;15.50;99.90
15113;DHT22;7657;50.140;7.076;2022-10-31T10:33:40;15.50;99.90
15113;DHT22;7657;50.140;7.076;2022-10-31T10:36:12;15.60;99.90
15113;DHT22;7657;50.140;7.076;2022-10-31T10:38:48;15.60;99.90
15113;DHT22;7657;50.140;7.076;2022-10-31T10:41:18;15.70;99.90
15113;DHT22;7657;50.140;7.076;2022-10-31T10:43:45;15.70;99.90
15113;DHT22;7657;50.140;7.076;2022-10-31T10:46:23;15.70;99.90
15113;DHT22;7657;50.140;7.076;2022-10-31T10:49:16;15.70;99.90
15113;DHT22;7657;50.140;7.076;2022-10-31T10:51:46;15.70;99.90
15113;DHT22;7657;50.140;7.076;2022-10-31T10:54:33;15.70;99.90
15113;DHT22;7657;50.140;7.076;2022-10-31T10:57:11;15.70;99.90
15113;DHT22;7657;50.140;7.076;2022-10-31T10:59:39;15.80;99.90
15113;DHT22;7657;50.140;7.076;2022-10-31T11:02:16;15.90;99.90
15113;DHT22;7657;50.140;7.076;2022-10-31T11:04:45;15.90;99.90
15113;DHT22;7657;50.140;7.076;2022-10-31T11:07:14;15.90;99.90
15113;DHT22;7657;50.140;7.076;2022-10-31T11:09:41;15.90;99.90
15113;DHT22;7657;50.140;7.076;2022-10-31T11:12:09;16.00;99.90
15113;DHT22;7657;50.140;7.076;2022-10-31T11:14:44;16.00;99.90
15113;DHT22;7657;50.140;7.076;2022-10-31T11:17:22;16.10;99.90
15113;DHT22;7657;50.140;7.076;2022-10-31T11:20:00;16.10;99.90
15113;DHT22;7657;50.140;7.076;2022-10-31T11:22:27;16.20;99.90
15113;DHT22;7657;50.140;7.076;2022-10-31T11:24:54;16.30;99.90
15113;DHT22;7657;50.140;7.076;2022-10-31T11:27:23;16.30;99.90
15113;DHT22;7657;50.140;7.076;2022-10-31T11:29:50;16.30;99.90
15113;DHT22;7657;50.140;7.076;2022-10-31T11:32:23;16.30;99.90
15113;DHT22;7657;50.140;7.076;2022-10-31T11:34:54;16.40;99.90
15113;DHT22;7657;50.140;7.076;2022-10-31T11:37:24;16.40;99.90
15113;DHT22;7657;50.140;7.076;2022-10-31T11:39:53;16.40;99.90
15113;DHT22;7657;50.140;7.076;2022-10-31T11:42:22;16.40;99.90
15113;DHT22;7657;50.140;7.076;2022-10-31T11:44:50;16.40;99.90
15113;DHT22;7657;50.140;7.076;2022-10-31T11:47:25;16.50;99.90
15113;DHT22;7657;50.140;7.076;2022-10-31T11:49:53;16.50;99.90
15113;DHT22;7657;50.140;7.076;2022-10-31T11:52:23;16.60;99.90
15113;DHT22;7657;50.140;7.076;2022-10-31T11:54:54;16.60;99.90
15113;DHT22;7657;50.140;7.076;2022-10-31T11:57:26;16.60;99.90
15113;DHT22;7657;50.140;7.076;2022-10-31T11:59:55;16.70;99.90
15113;DHT22;7657;50.140;7.076;2022-10-31T12:02:23;16.70;99.90
15113;DHT22;7657;50.140;7.076;2022-10-31T12:04:57;16.70;99.90
15113;DHT22;7657;50.140;7.076;2022-10-31T12:07:25;16.70;99.90
15113;DHT22;7657;50.140;7.076;2022-10-31T12:09:52;16.70;99.90
15113;DHT22;7657;50.140;7.076;2022-10-31T12:12:33;16.70;99.90
15113;DHT22;7657;50.140;7.076;2022-10-31T12:15:13;16.70;99.90
15113;DHT22;7657;50.140;7.076;2022-10-31T12:17:47;16.70;99.90
15113;DHT22;7657;50.140;7.076;2022-10-31T12:20:23;16.90;99.90
15113;DHT22;7657;50.140;7.076;2022-10-31T12:22:58;16.90;99.90
15113;DHT22;7657;50.140;7.076;2022-10-31T12:25:36;16.90;99.90
15113;DHT22;7657;50.140;7.076;2022-10-31T12:28:39;17.00;99.90
15113;DHT22;7657;50.140;7.076;2022-10-31T12:31:19;17.00;99.90
15113;DHT22;7657;50.140;7.076;2022-10-31T12:33:58;17.10;99.90
15113;DHT22;7657;50.140;7.076;2022-10-31T12:36:36;17.10;99.90
15113;DHT22;7657;50.140;7.076;2022-10-31T12:39:30;17.10;99.90
15113;DHT22;7657;50.140;7.076;2022-10-31T12:42:02;17.10;99.90
15113;DHT22;7657;50.140;7.076;2022-10-31T12:44:56;17.10;99.90
15113;DHT22;7657;50.140;7.076;2022-10-31T12:47:54;17.20;99.90
15113;DHT22;7657;50.140;7.076;2022-10-31T12:50:50;17.20;99.90
15113;DHT22;7657;50.140;7.076;2022-10-31T12:53:30;17.20;99.90
15113;DHT22;7657;50.140;7.076;2022-10-31T12:56:12;17.20;99.90
15113;DHT22;7657;50.140;7.076;2022-10-31T12:58:43;17.30;99.90
15113;DHT22;7657;50.140;7.076;2022-10-31T13:01:15;17.20;99.90
15113;DHT22;7657;50.140;7.076;2022-10-31T13:03:50;17.30;99.90
15113;DHT22;7657;50.140;7.076;2022-10-31T13:06:21;17.30;99.90
15113;DHT22;7657;50.140;7.076;2022-10-31T13:08:52;17.30;99.90
15113;DHT22;7657;50.140;7.076;2022-10-31T13:11:23;17.30;99.90
15113;DHT22;7657;50.140;7.076;2022-10-31T13:13:59;17.30;99.90
15113;DHT22;7657;50.140;7.076;2022-10-31T13:16:31;17.20;99.90
15113;DHT22;7657;50.140;7.076;2022-10-31T13:19:03;17.30;99.90
15113;DHT22;7657;50.140;7.076;2022-10-31T13:21:36;17.20;99.90
15113;DHT22;7657;50.140;7.076;2022-10-31T13:24:09;17.20;99.90
15113;DHT22;7657;50.140;7.076;2022-10-31T13:26:44;17.30;99.90
15113;DHT22;7657;50.140;7.076;2022-10-31T13:29:18;17.40;99.90
15113;DHT22;7657;50.140;7.076;2022-10-31T13:31:47;17.40;99.90
15113;DHT22;7657;50.140;7.076;2022-10-31T13:34:25;17.40;99.90
15113;DHT22;7657;50.140;7.076;2022-10-31T13:37:00;17.50;99.90
15113;DHT22;7657;50.140;7.076;2022-10-31T13:39:45;17.50;99.90
15113;DHT22;7657;50.140;7.076;2022-10-31T13:42:19;17.40;99.90
15113;DHT22;7657;50.140;7.076;2022-10-31T13:44:48;17.40;99.90
15113;DHT22;7657;50.140;7.076;2022-10-31T13:47:24;17.40;99.90
15113;DHT22;7657;50.140;7.076;2022-10-31T13:49:51;17.40;99.90
15113;DHT22;7657;50.140;7.076;2022-10-31T13:52:24;17.30;99.90
15113;DHT22;7657;50.140;7.076;2022-10-31T13:54:53;17.30;99.90
15113;DHT22;7657;50.140;7.076;2022-10-31T13:57:31;17.30;99.90
15113;DHT22;7657;50.140;7.076;2022-10-31T14:00:00;17.30;99.90
15113;DHT22;7657;50.140;7.076;2022-10-31T14:02:29;17.30;99.90
15113;DHT22;7657;50.140;7.076;2022-10-31T14:04:59;17.30;99.90
15113;DHT22;7657;50.140;7.076;2022-10-31T14:07:28;17.30;99.90
15113;DHT22;7657;50.140;7.076;2022-10-31T14:09:58;17.20;99.90
15113;DHT22;7657;50.140;7.076;2022-10-31T14:12:30;17.20;99.90
15113;DHT22;7657;50.140;7.076;2022-10-31T14:15:02;17.10;99.90
15113;DHT22;7657;50.140;7.076;2022-10-31T14:17:36;17.10;99.90
15113;DHT22;7657;50.140;7.076;2022-10-31T14:20:33;17.10;99.90
15113;DHT22;7657;50.140;7.076;2022-10-31T14:23:13;17.10;99.90
15113;DHT22;7657;50.140;7.076;2022-10-31T14:26:17;17.20;99.90
15113;DHT22;7657;50.140;7.076;2022-10-31T14:28:44;17.20;99.90
15113;DHT22;7657;50.140;7.076;2022-10-31T14:31:31;17.30;99.90
15113;DHT22;7657;50.140;7.076;2022-10-31T14:34:01;17.30;99.90
15113;DHT22;7657;50.140;7.076;2022-10-31T14:36:40;17.30;99.90
15113;DHT22;7657;50.140;7.076;2022-10-31T14:39:17;17.30;99.90
15113;DHT22;7657;50.140;7.076;2022-10-31T14:41:57;17.30;99.90
15113;DHT22;7657;50.140;7.076;2022-10-31T14:47:44;17.30;99.90
15113;DHT22;7657;50.140;7.076;2022-10-31T14:50:33;17.30;99.90
15113;DHT22;7657;50.140;7.076;2022-10-31T14:53:04;17.30;99.90
15113;DHT22;7657;50.140;7.076;2022-10-31T14:55:45;17.20;99.90
15113;DHT22;7657;50.140;7.076;2022-10-31T14:58:17;17.10;99.90
15113;DHT22;7657;50.140;7.076;2022-10-31T15:00:45;17.00;99.90
15113;DHT22;7657;50.140;7.076;2022-10-31T15:03:15;16.90;99.90
15113;DHT22;7657;50.140;7.076;2022-10-31T15:05:50;17.00;99.90
15113;DHT22;7657;50.140;7.076;2022-10-31T15:08:33;16.90;99.90
15113;DHT22;7657;50.140;7.076;2022-10-31T15:11:09;16.90;99.90
15113;DHT22;7657;50.140;7.076;2022-10-31T15:13:42;16.90;99.90
15113;DHT22;7657;50.140;7.076;2022-10-31T15:16:10;16.90;99.90
15113;DHT22;7657;50.140;7.076;2022-10-31T15:18:46;16.80;99.90
15113;DHT22;7657;50.140;7.076;2022-10-31T15:21:15;16.80;99.90
15113;DHT22;7657;50.140;7.076;2022-10-31T15:23:43;16.80;99.90
15113;DHT22;7657;50.140;7.076;2022-10-31T15:26:17;16.80;99.90
15113;DHT22;7657;50.140;7.076;2022-10-31T15:28:45;16.80;99.90
15113;DHT22;7657;50.140;7.076;2022-10-31T15:31:16;16.80;99.90
15113;DHT22;7657;50.140;7.076;2022-10-31T15:33:48;16.80;99.90
15113;DHT22;7657;50.140;7.076;2022-10-31T15:36:21;16.80;99.90
15113;DHT22;7657;50.140;7.076;2022-10-31T15:38:49;16.80;99.90
15113;DHT22;7657;50.140;7.076;2022-10-31T15:41:30;16.80;99.90
15113;DHT22;7657;50.140;7.076;2022-10-31T15:44:03;16.80;99.90
15113;DHT22;7657;50.140;7.076;2022-10-31T15:46:30;16.70;99.90
15113;DHT22;7657;50.140;7.076;2022-10-31T15:48:59;16.70;99.90
15113;DHT22;7657;50.140;7.076;2022-10-31T15:51:28;16.70;99.90
15113;DHT22;7657;50.140;7.076;2022-10-31T15:53:58;16.70;99.90
15113;DHT22;7657;50.140;7.076;2022-10-31T15:56:30;16.60;99.90
15113;DHT22;7657;50.140;7.076;2022-10-31T15:58:58;16.50;99.90
15113;DHT22;7657;50.140;7.076;2022-10-31T16:01:27;16.50;99.90
15113;DHT22;7657;50.140;7.076;2022-10-31T16:04:20;16.50;99.90
15113;DHT22;7657;50.140;7.076;2022-10-31T16:06:58;16.50;99.90
15113;DHT22;7657;50.140;7.076;2022-10-31T16:09:26;16.50;99.90
15113;DHT22;7657;50.140;7.076;2022-10-31T16:11:56;16.50;99.90
15113;DHT22;7657;50.140;7.076;2022-10-31T16:14:25;16.40;99.90
15113;DHT22;7657;50.140;7.076;2022-10-31T16:16:54;16.40;99.90